createdAt,value
2023-04-14T00:00:36.997Z,5.32
2023-04-14T00:03:04.087Z,5.30
2023-04-14T00:05:31.869Z,5.30
2023-04-14T00:07:58.731Z,5.29
2023-04-14T00:10:26.225Z,5.20
2023-04-14T00:12:53.729Z,5.25
2023-04-14T00:15:20.296Z,5.23
2023-04-14T00:17:46.893Z,5.20
2023-04-14T00:20:13.430Z,5.19
2023-04-14T00:22:39.860Z,5.19
2023-04-14T00:25:06.676Z,5.17
2023-04-14T00:27:33.267Z,5.15
2023-04-14T00:29:59.725Z,5.15
2023-04-14T00:32:26.208Z,5.13
2023-04-14T00:34:52.731Z,5.12
2023-04-14T00:37:19.308Z,4.94
2023-04-14T00:39:45.932Z,5.16
2023-04-14T00:42:12.469Z,5.12
2023-04-14T00:44:38.922Z,4.90
2023-04-14T00:47:05.685Z,5.10
2023-04-14T00:49:32.212Z,5.15
2023-04-14T00:51:59.179Z,5.07
2023-04-14T00:54:25.693Z,5.13
2023-04-14T00:56:53.988Z,5.01
2023-04-14T00:59:20.889Z,5.08
2023-04-14T01:01:47.393Z,5.03
2023-04-14T01:04:14.430Z,5.00
2023-04-14T01:06:41.442Z,4.86
2023-04-14T01:09:09.308Z,4.97
2023-04-14T01:11:55.606Z,4.97
2023-04-14T01:14:52.617Z,4.94
2023-04-14T01:17:29.357Z,4.91
2023-04-14T01:20:37.578Z,4.91
2023-04-14T01:23:22.557Z,4.85
2023-04-14T01:26:17.472Z,4.86
2023-04-14T01:28:56.145Z,4.85
2023-04-14T01:31:27.189Z,4.79
2023-04-14T01:34:03.254Z,4.85
2023-04-14T01:36:51.345Z,4.89
2023-04-14T01:39:21.361Z,4.87
2023-04-14T01:41:56.242Z,4.91
2023-04-14T01:44:25.331Z,4.92
2023-04-14T01:47:04.522Z,4.91
2023-04-14T01:49:34.039Z,4.94
2023-04-14T01:52:04.098Z,4.85
2023-04-14T01:54:31.977Z,4.93
2023-04-14T01:57:01.712Z,4.79
2023-04-14T01:59:30.638Z,4.78
2023-04-14T02:02:00.864Z,4.86
2023-04-14T02:04:29.298Z,4.80
2023-04-14T02:06:59.122Z,4.83
2023-04-14T02:09:28.005Z,4.53
2023-04-14T02:11:55.637Z,4.76
2023-04-14T02:14:23.737Z,4.72
2023-04-14T02:16:52.734Z,4.68
2023-04-14T02:19:21.730Z,4.46
2023-04-14T02:21:50.961Z,4.58
2023-04-14T02:24:18.231Z,4.51
2023-04-14T02:26:53.525Z,4.51
2023-04-14T02:29:23.577Z,4.47
2023-04-14T02:31:57.357Z,4.40
2023-04-14T02:34:28.258Z,4.35
2023-04-14T02:36:57.907Z,4.40
2023-04-14T02:39:34.978Z,4.40
2023-04-14T02:42:08.062Z,4.36
2023-04-14T02:44:38.779Z,4.34
2023-04-14T02:47:08.819Z,4.17
2023-04-14T02:49:43.290Z,4.29
2023-04-14T02:52:11.865Z,4.24
2023-04-14T02:54:41.629Z,4.22
2023-04-14T02:57:08.916Z,4.17
2023-04-14T02:59:36.425Z,4.16
2023-04-14T03:02:05.272Z,4.15
2023-04-14T03:04:36.576Z,4.14
2023-04-14T03:07:04.717Z,4.15
2023-04-14T03:09:32.184Z,4.07
2023-04-14T03:12:01.058Z,4.14
2023-04-14T03:14:28.299Z,3.85
2023-04-14T03:16:56.988Z,4.02
2023-04-14T03:19:24.008Z,4.18
2023-04-14T03:21:51.344Z,4.10
2023-04-14T03:24:24.736Z,4.10
2023-04-14T03:26:58.504Z,4.15
2023-04-14T03:29:36.298Z,4.14
2023-04-14T03:32:06.926Z,4.06
2023-04-14T03:34:35.004Z,3.97
2023-04-14T03:37:04.340Z,4.08
2023-04-14T03:39:34.457Z,4.06
2023-04-14T03:42:08.336Z,4.05
2023-04-14T03:44:37.759Z,4.01
2023-04-14T03:47:08.035Z,4.01
2023-04-14T03:49:39.327Z,4.00
2023-04-14T03:52:08.911Z,3.98
2023-04-14T03:54:39.054Z,3.98
2023-04-14T03:57:08.735Z,3.99
2023-04-14T03:59:38.277Z,4.00
2023-04-14T04:02:06.657Z,3.69
2023-04-14T04:04:35.702Z,3.99
2023-04-14T04:07:02.978Z,4.01
2023-04-14T04:09:31.054Z,4.01
2023-04-14T04:11:59.978Z,3.99
2023-04-14T04:14:29.928Z,3.74
2023-04-14T04:16:59.512Z,4.04
2023-04-14T04:19:26.256Z,4.06
2023-04-14T04:21:57.475Z,4.06
2023-04-14T04:24:27.344Z,3.99
2023-04-14T04:26:54.270Z,4.08
2023-04-14T04:29:22.854Z,3.83
2023-04-14T04:31:49.625Z,3.97
2023-04-14T04:34:19.433Z,3.98
2023-04-14T04:36:47.886Z,4.04
2023-04-14T04:39:17.483Z,3.84
2023-04-14T04:41:43.995Z,4.02
2023-04-14T04:44:10.547Z,3.79
2023-04-14T04:46:53.601Z,4.07
2023-04-14T04:49:20.733Z,3.99
2023-04-14T04:51:47.757Z,4.05
2023-04-14T04:54:14.523Z,4.01
2023-04-14T04:56:41.379Z,4.08
2023-04-14T04:59:07.835Z,4.01
2023-04-14T05:01:34.458Z,4.08
2023-04-14T05:04:01.539Z,3.86
2023-04-14T05:06:28.271Z,4.05
2023-04-14T05:08:55.404Z,4.13
2023-04-14T05:11:22.194Z,4.14
2023-04-14T05:13:48.697Z,4.14
2023-04-14T05:16:15.604Z,4.17
2023-04-14T05:18:42.543Z,4.15
2023-04-14T05:21:10.956Z,3.97
2023-04-14T05:23:38.345Z,4.22
2023-04-14T05:26:26.939Z,4.27
2023-04-14T05:28:52.733Z,4.28
2023-04-14T05:31:20.176Z,4.34
2023-04-14T05:33:46.768Z,4.39
2023-04-14T05:36:13.251Z,4.44
2023-04-14T05:38:42.305Z,4.35
2023-04-14T05:41:09.323Z,4.55
2023-04-14T05:43:35.912Z,4.45
2023-04-14T05:46:02.616Z,4.58
2023-04-14T05:48:33.345Z,4.78
2023-04-14T05:51:00.004Z,4.88
2023-04-14T05:53:27.438Z,4.94
2023-04-14T05:55:54.406Z,5.07
2023-04-14T05:58:21.572Z,5.18
2023-04-14T06:00:48.166Z,5.10
2023-04-14T06:03:16.286Z,5.36
2023-04-14T06:05:43.154Z,5.38
2023-04-14T06:08:09.638Z,5.51
2023-04-14T06:10:36.255Z,5.58
2023-04-14T06:13:02.921Z,5.61
2023-04-14T06:15:29.828Z,5.76
2023-04-14T06:17:56.493Z,5.83
2023-04-14T06:20:23.047Z,5.89
2023-04-14T06:22:49.498Z,5.94
2023-04-14T06:25:16.383Z,6.02
2023-04-14T06:27:43.376Z,6.09
2023-04-14T06:30:10.191Z,5.97
2023-04-14T06:32:36.827Z,6.45
2023-04-14T06:35:04.849Z,6.57
2023-04-14T06:37:32.131Z,6.58
2023-04-14T06:39:58.649Z,6.64
2023-04-14T06:42:25.691Z,6.86
2023-04-14T06:44:52.273Z,7.11
2023-04-14T06:47:19.712Z,7.30
2023-04-14T06:49:46.205Z,7.33
2023-04-14T06:52:12.690Z,7.47
2023-04-14T06:54:40.733Z,7.84
2023-04-14T06:57:07.243Z,7.96
2023-04-14T06:59:33.759Z,8.27
2023-04-14T07:02:00.864Z,8.53
2023-04-14T07:04:27.525Z,8.78
2023-04-14T07:06:59.241Z,9.05
2023-04-14T07:09:25.681Z,9.13
2023-04-14T07:11:53.531Z,9.23
2023-04-14T07:14:20.337Z,9.47
2023-04-14T07:16:47.828Z,9.37
2023-04-14T07:19:15.550Z,9.64
2023-04-14T07:21:41.947Z,9.65
2023-04-14T07:24:09.497Z,9.78
2023-04-14T07:26:36.401Z,9.75
2023-04-14T07:29:03.065Z,9.74
2023-04-14T07:31:33.965Z,9.95
2023-04-14T07:34:02.813Z,10.01
2023-04-14T07:36:30.805Z,10.07
2023-04-14T07:38:57.333Z,9.84
2023-04-14T07:41:25.637Z,10.19
2023-04-14T07:43:55.425Z,10.39
2023-04-14T07:46:22.448Z,10.49
2023-04-14T07:48:49.044Z,10.34
2023-04-14T07:51:15.676Z,10.77
2023-04-14T07:53:43.661Z,10.75
2023-04-14T07:56:10.481Z,10.85
2023-04-14T07:58:37.114Z,10.92
2023-04-14T08:01:04.853Z,11.16
2023-04-14T08:03:31.708Z,11.25
2023-04-14T08:05:58.300Z,11.36
2023-04-14T08:08:25.956Z,11.45
2023-04-14T08:10:52.512Z,11.54
2023-04-14T08:13:18.940Z,11.65
2023-04-14T08:15:45.753Z,11.74
2023-04-14T08:18:12.429Z,11.82
2023-04-14T08:20:38.968Z,11.74
2023-04-14T08:23:05.539Z,11.98
2023-04-14T08:25:32.035Z,12.07
2023-04-14T08:27:58.592Z,12.09
2023-04-14T08:30:25.083Z,12.31
2023-04-14T08:32:51.882Z,12.37
2023-04-14T08:35:38.739Z,12.54
2023-04-14T08:38:04.973Z,12.64
2023-04-14T08:40:40.146Z,13.02
2023-04-14T08:43:07.073Z,13.04
2023-04-14T08:45:34.233Z,13.38
2023-04-14T08:48:02.882Z,13.56
2023-04-14T08:50:37.117Z,13.77
2023-04-14T08:53:08.548Z,13.86
2023-04-14T08:55:39.327Z,14.07
2023-04-14T08:58:08.103Z,14.22
2023-04-14T09:00:35.172Z,14.35
2023-04-14T09:03:02.345Z,14.42
2023-04-14T09:05:29.587Z,14.54
2023-04-14T09:07:56.796Z,14.40
2023-04-14T09:10:23.614Z,14.73
2023-04-14T09:12:50.652Z,14.82
2023-04-14T09:15:17.107Z,14.92
2023-04-14T09:17:44.198Z,14.90
2023-04-14T09:20:37.651Z,15.10
2023-04-14T09:22:58.852Z,15.40
2023-04-14T09:25:26.058Z,15.57
2023-04-14T09:27:52.864Z,15.43
2023-04-14T09:30:20.603Z,15.74
2023-04-14T09:32:57.774Z,15.90
2023-04-14T09:35:43.696Z,16.13
2023-04-14T09:38:10.338Z,16.21
2023-04-14T09:40:39.018Z,16.45
2023-04-14T09:43:05.955Z,16.51
2023-04-14T09:45:45.711Z,16.63
2023-04-14T09:48:13.015Z,16.65
2023-04-14T09:51:10.014Z,16.81
2023-04-14T09:53:38.264Z,16.79
2023-04-14T09:56:07.043Z,16.93
2023-04-14T09:58:36.139Z,17.04
2023-04-14T10:01:05.726Z,17.08
2023-04-14T10:03:40.461Z,16.92
2023-04-14T10:06:19.210Z,17.18
2023-04-14T10:08:48.649Z,17.28
2023-04-14T10:11:29.604Z,17.36
2023-04-14T10:13:58.895Z,17.36
2023-04-14T10:16:26.561Z,17.34
2023-04-14T10:18:54.624Z,17.30
2023-04-14T10:21:24.347Z,17.29
2023-04-14T10:23:51.710Z,17.31
2023-04-14T10:26:19.394Z,17.21
2023-04-14T10:28:53.795Z,17.11
2023-04-14T10:31:20.361Z,16.97
2023-04-14T10:33:47.038Z,16.84
2023-04-14T10:36:23.482Z,16.83
2023-04-14T10:38:50.245Z,16.74
2023-04-14T10:41:19.484Z,16.95
2023-04-14T10:43:45.911Z,17.03
2023-04-14T10:46:12.508Z,17.09
2023-04-14T10:48:41.136Z,17.51
2023-04-14T10:51:09.843Z,17.76
2023-04-14T10:53:48.579Z,17.96
2023-04-14T10:56:15.076Z,18.30
2023-04-14T10:58:42.087Z,18.59
2023-04-14T11:01:22.940Z,18.91
2023-04-14T11:03:49.897Z,19.06
2023-04-14T11:06:48.231Z,19.44
2023-04-14T11:09:32.273Z,19.48
2023-04-14T11:12:23.257Z,19.33
2023-04-14T11:14:54.475Z,19.42
2023-04-14T11:17:24.664Z,19.63
2023-04-14T11:19:55.222Z,19.75
2023-04-14T11:22:39.195Z,19.71
2023-04-14T11:25:08.125Z,19.89
2023-04-14T11:27:35.676Z,19.84
2023-04-14T11:30:02.140Z,19.86
2023-04-14T11:32:28.751Z,19.53
2023-04-14T11:34:55.280Z,19.55
2023-04-14T11:37:22.870Z,19.44
2023-04-14T11:39:50.320Z,19.28
2023-04-14T11:42:17.036Z,19.25
2023-04-14T11:44:43.473Z,19.13
2023-04-14T11:47:09.929Z,19.03
2023-04-14T11:49:37.683Z,18.98
2023-04-14T11:52:06.199Z,18.90
2023-04-14T11:54:39.211Z,18.73
2023-04-14T11:57:13.253Z,18.99
2023-04-14T11:59:44.060Z,19.01
2023-04-14T12:02:18.876Z,19.07
2023-04-14T12:04:49.258Z,18.99
2023-04-14T12:07:18.947Z,18.92
2023-04-14T12:09:47.216Z,19.05
2023-04-14T12:12:16.931Z,19.04
2023-04-14T12:14:48.530Z,19.08
2023-04-14T12:17:16.469Z,19.04
2023-04-14T12:19:44.499Z,18.94
2023-04-14T12:22:11.891Z,18.96
2023-04-14T12:24:43.140Z,18.77
2023-04-14T12:27:10.095Z,18.89
2023-04-14T12:29:37.098Z,19.10
2023-04-14T12:32:14.052Z,19.12
2023-04-14T12:34:40.886Z,19.07
2023-04-14T12:37:09.800Z,19.10
2023-04-14T12:40:00.755Z,19.19
2023-04-14T12:42:28.977Z,19.00
2023-04-14T12:44:57.849Z,18.98
2023-04-14T12:47:33.222Z,18.95
2023-04-14T12:50:02.321Z,18.83
2023-04-14T12:52:40.966Z,18.86
2023-04-14T12:55:19.026Z,18.69
2023-04-14T12:57:45.727Z,18.80
2023-04-14T13:00:13.739Z,18.73
2023-04-14T13:02:43.497Z,18.51
2023-04-14T13:05:12.034Z,18.46
2023-04-14T13:07:38.580Z,18.71
2023-04-14T13:10:05.823Z,18.70
2023-04-14T13:12:32.342Z,18.70
2023-04-14T13:14:58.831Z,18.72
2023-04-14T13:17:25.676Z,18.73
2023-04-14T13:19:52.277Z,18.79
2023-04-14T13:22:18.718Z,18.91
2023-04-14T13:24:45.591Z,18.95
2023-04-14T13:27:12.270Z,18.43
2023-04-14T13:29:41.098Z,19.15
2023-04-14T13:32:12.859Z,19.27
2023-04-14T13:34:40.263Z,19.36
2023-04-14T13:37:06.740Z,19.35
2023-04-14T13:39:33.282Z,19.43
2023-04-14T13:41:59.771Z,19.52
2023-04-14T13:44:26.231Z,19.56
2023-04-14T13:46:53.041Z,19.55
2023-04-14T13:49:19.597Z,19.71
2023-04-14T13:51:46.593Z,19.79
2023-04-14T13:54:13.061Z,19.86
2023-04-14T13:56:39.493Z,19.84
2023-04-14T13:59:06.030Z,19.87
2023-04-14T14:01:32.619Z,19.94
2023-04-14T14:03:59.356Z,19.74
2023-04-14T14:06:26.381Z,19.92
2023-04-14T14:09:06.085Z,19.77
2023-04-14T14:11:33.282Z,19.63
2023-04-14T14:14:00.275Z,19.58
2023-04-14T14:18:56.510Z,19.27
2023-04-14T14:21:22.950Z,19.09
2023-04-14T14:23:49.605Z,19.59
2023-04-14T14:26:16.118Z,19.74
2023-04-14T14:28:42.755Z,19.67
2023-04-14T14:31:09.283Z,20.02
2023-04-14T14:33:35.784Z,20.10
2023-04-14T14:36:02.716Z,19.95
2023-04-14T14:38:29.423Z,20.27
2023-04-14T14:40:55.981Z,20.15
2023-04-14T14:43:22.435Z,20.28
2023-04-14T14:45:48.938Z,20.18
2023-04-14T14:48:17.173Z,20.17
2023-04-14T14:50:43.817Z,20.09
2023-04-14T14:53:10.187Z,20.03
2023-04-14T14:55:36.676Z,19.83
2023-04-14T14:58:04.026Z,19.72
2023-04-14T15:00:30.764Z,19.42
2023-04-14T15:02:57.407Z,19.13
2023-04-14T15:05:23.971Z,19.02
2023-04-14T15:07:50.906Z,18.80
2023-04-14T15:10:17.557Z,18.55
2023-04-14T15:12:44.331Z,18.46
2023-04-14T15:15:11.428Z,18.30
2023-04-14T15:17:37.981Z,18.06
2023-04-14T15:20:04.881Z,17.80
2023-04-14T15:22:32.080Z,17.68
2023-04-14T15:24:58.940Z,17.58
2023-04-14T15:27:25.397Z,17.32
2023-04-14T15:29:52.014Z,17.60
2023-04-14T15:32:27.285Z,17.57
2023-04-14T15:34:54.743Z,17.54
2023-04-14T15:37:21.896Z,17.19
2023-04-14T15:39:48.462Z,17.56
2023-04-14T15:42:15.707Z,17.56
2023-04-14T15:44:45.190Z,17.40
2023-04-14T15:47:12.382Z,17.62
2023-04-14T15:49:39.022Z,17.09
2023-04-14T15:52:06.303Z,17.29
2023-04-14T15:54:33.722Z,17.31
2023-04-14T15:57:00.266Z,17.30
2023-04-14T15:59:28.704Z,17.38
2023-04-14T16:01:56.192Z,17.43
2023-04-14T16:04:24.124Z,17.73
2023-04-14T16:07:02.758Z,17.65
2023-04-14T16:09:29.293Z,18.25
2023-04-14T16:11:56.953Z,18.29
2023-04-14T16:14:23.477Z,18.12
2023-04-14T16:16:50.462Z,18.08
2023-04-14T16:19:17.121Z,17.90
2023-04-14T16:21:43.584Z,17.77
2023-04-14T16:24:10.676Z,17.58
2023-04-14T16:26:38.347Z,17.70
2023-04-14T16:29:05.048Z,17.68
2023-04-14T16:31:31.791Z,17.77
2023-04-14T16:33:58.762Z,17.89
2023-04-14T16:36:26.354Z,17.94
2023-04-14T16:38:53.774Z,17.99
2023-04-14T16:41:20.499Z,17.93
2023-04-14T16:43:47.670Z,17.62
2023-04-14T16:46:14.427Z,17.51
2023-04-14T16:48:41.763Z,17.16
2023-04-14T16:51:09.507Z,17.07
2023-04-14T16:53:37.625Z,17.03
2023-04-14T16:56:08.862Z,17.02
2023-04-14T16:58:38.054Z,16.93
2023-04-14T17:01:06.125Z,16.94
2023-04-14T17:03:33.047Z,16.77
2023-04-14T17:05:59.672Z,16.97
2023-04-14T17:08:26.592Z,17.01
2023-04-14T17:10:53.119Z,17.00
2023-04-14T17:13:19.775Z,16.91
2023-04-14T17:15:49.453Z,16.90
2023-04-14T17:18:19.770Z,16.61
2023-04-14T17:20:46.228Z,16.48
2023-04-14T17:23:13.815Z,16.27
2023-04-14T17:25:41.285Z,16.01
2023-04-14T17:28:07.751Z,15.69
2023-04-14T17:30:36.556Z,15.40
2023-04-14T17:33:04.250Z,15.12
2023-04-14T17:35:31.761Z,14.94
2023-04-14T17:37:58.293Z,14.68
2023-04-14T17:40:25.328Z,14.28
2023-04-14T17:42:52.015Z,14.26
2023-04-14T17:45:23.051Z,13.98
2023-04-14T17:47:51.014Z,13.88
2023-04-14T17:50:18.197Z,13.76
2023-04-14T17:52:45.619Z,13.61
2023-04-14T17:55:12.682Z,13.31
2023-04-14T17:57:39.659Z,13.37
2023-04-14T18:00:09.170Z,13.17
2023-04-14T18:02:38.322Z,13.14
2023-04-14T18:05:09.087Z,13.03
2023-04-14T18:07:36.891Z,12.90
2023-04-14T18:10:03.622Z,12.62
2023-04-14T18:12:30.911Z,12.27
2023-04-14T18:14:57.420Z,12.49
2023-04-14T18:17:24.768Z,12.36
2023-04-14T18:19:51.514Z,12.07
2023-04-14T18:22:18.274Z,12.07
2023-04-14T18:29:43.844Z,11.50
2023-04-14T18:32:10.370Z,11.62
2023-04-14T18:34:36.862Z,11.53
2023-04-14T18:37:04.094Z,11.45
2023-04-14T18:39:37.378Z,11.30
2023-04-14T18:42:04.610Z,11.26
2023-04-14T18:44:31.256Z,11.19
2023-04-14T18:46:57.745Z,11.09
2023-04-14T18:49:24.479Z,11.04
2023-04-14T18:51:51.584Z,10.99
2023-04-14T18:54:18.858Z,10.90
2023-04-14T18:56:45.976Z,10.64
2023-04-14T18:59:12.653Z,10.72
2023-04-14T19:01:39.452Z,10.66
2023-04-14T19:04:07.779Z,10.64
2023-04-14T19:06:34.675Z,10.55
2023-04-14T19:09:01.778Z,10.41
2023-04-14T19:11:28.979Z,10.40
2023-04-14T19:13:55.682Z,10.37
2023-04-14T19:16:22.628Z,10.11
2023-04-14T19:18:49.363Z,10.27
2023-04-14T19:21:16.212Z,10.10
2023-04-14T19:23:43.142Z,10.16
2023-04-14T19:26:11.387Z,10.15
2023-04-14T19:28:42.357Z,10.13
2023-04-14T19:31:09.106Z,10.13
2023-04-14T19:33:35.663Z,10.01
2023-04-14T19:36:02.500Z,10.23
2023-04-14T19:38:29.058Z,10.28
2023-04-14T19:40:56.334Z,10.31
2023-04-14T19:43:22.945Z,10.43
2023-04-14T19:45:53.873Z,10.29
2023-04-14T19:48:23.773Z,10.54
2023-04-14T19:50:54.692Z,10.39
2023-04-14T19:53:23.348Z,10.64
2023-04-14T19:55:51.186Z,10.73
2023-04-14T19:58:21.679Z,10.76
2023-04-14T20:00:51.418Z,10.79
2023-04-14T20:03:19.331Z,10.81
2023-04-14T20:05:50.122Z,10.78
2023-04-14T20:08:17.073Z,10.57
2023-04-14T20:10:43.612Z,10.63
2023-04-14T20:13:10.213Z,10.63
2023-04-14T20:15:40.124Z,10.59
2023-04-14T20:18:06.560Z,10.61
2023-04-14T20:20:33.305Z,10.38
2023-04-14T20:23:01.582Z,10.57
2023-04-14T20:25:28.114Z,10.44
2023-04-14T20:27:54.679Z,10.46
2023-04-14T20:30:21.958Z,10.30
2023-04-14T20:32:48.904Z,10.37
2023-04-14T20:35:15.621Z,10.42
2023-04-14T20:37:42.199Z,10.40
2023-04-14T20:40:08.901Z,10.10
2023-04-14T20:42:35.652Z,10.39
2023-04-14T20:45:02.130Z,10.28
2023-04-14T20:47:28.750Z,10.37
2023-04-14T20:49:55.412Z,10.37
2023-04-14T20:52:22.890Z,10.36
2023-04-14T20:54:49.512Z,10.37
2023-04-14T20:57:15.933Z,10.00
2023-04-14T20:59:42.881Z,10.36
2023-04-14T21:02:09.504Z,10.36
2023-04-14T21:04:36.052Z,10.35
2023-04-14T21:07:03.717Z,9.94
2023-04-14T21:09:30.229Z,10.01
2023-04-14T21:12:14.685Z,10.24
2023-04-14T21:15:44.218Z,10.28
2023-04-14T21:17:29.176Z,10.28
2023-04-14T21:19:56.015Z,10.25
2023-04-14T21:22:22.543Z,10.23
2023-04-14T21:24:49.668Z,10.19
2023-04-14T21:27:17.272Z,10.16
2023-04-14T21:29:44.613Z,10.18
2023-04-14T21:32:11.450Z,10.18
2023-04-14T21:34:37.960Z,10.12
2023-04-14T21:37:04.617Z,10.17
2023-04-14T21:39:33.260Z,10.18
2023-04-14T21:42:00.447Z,10.17
2023-04-14T21:44:27.539Z,9.83
2023-04-14T21:46:54.843Z,10.18
2023-04-14T21:49:22.060Z,10.18
2023-04-14T21:51:50.424Z,10.06
2023-04-14T21:54:17.113Z,10.23
2023-04-14T21:56:43.658Z,10.25
2023-04-14T21:59:10.276Z,10.19
2023-04-14T22:01:36.906Z,10.19
2023-04-14T22:04:03.565Z,10.09
2023-04-14T22:06:30.218Z,10.16
2023-04-14T22:08:56.672Z,10.27
2023-04-14T22:11:23.215Z,10.25
2023-04-14T22:13:49.782Z,10.26
2023-04-14T22:16:16.451Z,10.23
2023-04-14T22:18:43.028Z,10.26
2023-04-14T22:21:10.493Z,10.27
2023-04-14T22:23:38.565Z,10.30
2023-04-14T22:26:05.175Z,10.29
2023-04-14T22:28:31.712Z,10.18
2023-04-14T22:30:58.178Z,10.33
2023-04-14T22:33:24.649Z,10.35
2023-04-14T22:35:51.202Z,10.30
2023-04-14T22:38:17.638Z,10.31
2023-04-14T22:40:44.200Z,10.02
2023-04-14T22:43:10.805Z,10.15
2023-04-14T22:45:38.694Z,10.32
2023-04-14T22:48:06.798Z,10.28
2023-04-14T22:50:33.828Z,10.29
2023-04-14T22:53:00.899Z,10.14
2023-04-14T22:55:27.619Z,10.31
2023-04-14T22:57:54.220Z,10.35
2023-04-14T23:00:21.590Z,10.09
2023-04-14T23:02:51.610Z,10.31
2023-04-14T23:05:18.925Z,10.31
2023-04-14T23:07:45.627Z,10.06
2023-04-14T23:10:12.085Z,10.27
2023-04-14T23:12:41.594Z,10.25
2023-04-14T23:15:08.586Z,9.93
2023-04-14T23:17:35.271Z,10.17
2023-04-14T23:20:02.458Z,10.15
2023-04-14T23:22:29.578Z,10.11
2023-04-14T23:24:56.095Z,10.13
2023-04-14T23:27:23.027Z,10.08
2023-04-14T23:29:49.555Z,10.06
2023-04-14T23:32:16.263Z,10.06
2023-04-14T23:34:49.320Z,10.00
2023-04-14T23:37:15.786Z,10.02
2023-04-14T23:39:42.227Z,9.99
2023-04-14T23:42:08.847Z,9.94
2023-04-14T23:44:35.354Z,9.92
2023-04-14T23:47:01.970Z,9.80
2023-04-14T23:49:34.067Z,9.74
2023-04-14T23:52:02.199Z,9.88
2023-04-14T23:54:30.679Z,9.74
2023-04-14T23:56:57.227Z,9.91
2023-04-14T23:59:23.690Z,9.90
